createdAt,value
2022-08-18T00:01:48.914Z,100236.25
2022-08-18T00:04:35.958Z,100243.06
2022-08-18T00:07:10.455Z,100246.53
2022-08-18T00:09:40.836Z,100248.97
2022-08-18T00:12:41.386Z,100236.75
2022-08-18T00:15:16.675Z,100241.63
2022-08-18T00:17:45.387Z,100239.94
2022-08-18T00:20:20.018Z,100252.41
2022-08-18T00:22:48.285Z,100250.22
2022-08-18T00:25:18.526Z,100250.50
2022-08-18T00:27:46.463Z,100249.13
2022-08-18T00:30:17.114Z,100260.75
2022-08-18T00:32:48.970Z,100266.44
2022-08-18T00:35:42.513Z,100279.47
2022-08-18T00:38:24.897Z,100287.59
2022-08-18T00:40:55.790Z,100284.03
2022-08-18T00:43:46.901Z,100287.28
2022-08-18T00:46:17.070Z,100295.09
2022-08-18T00:48:48.598Z,100293.22
2022-08-18T00:51:45.583Z,100287.53
2022-08-18T00:54:19.294Z,100291.31
2022-08-18T00:56:53.551Z,100303.53
2022-08-18T00:59:27.854Z,100304.59
2022-08-18T01:02:02.758Z,100305.16
2022-08-18T01:05:03.246Z,100303.22
2022-08-18T01:07:39.059Z,100302.38
2022-08-18T01:10:08.492Z,100303.44
2022-08-18T01:12:45.024Z,100305.91
2022-08-18T01:15:29.432Z,100305.09
2022-08-18T01:18:41.830Z,100316.47
2022-08-18T01:21:42.719Z,100322.16
2022-08-18T01:24:13.302Z,100323.22
2022-08-18T01:26:46.559Z,100319.47
2022-08-18T01:29:43.307Z,100320.78
2022-08-18T01:32:15.723Z,100322.41
2022-08-18T01:34:48.325Z,100321.03
2022-08-18T01:37:18.240Z,100318.31
2022-08-18T01:41:27.544Z,100319.97
2022-08-18T01:42:38.190Z,100313.44
2022-08-18T01:45:08.206Z,100312.06
2022-08-18T01:47:47.909Z,100315.31
2022-08-18T01:54:16.321Z,100328.25
2022-08-18T01:56:44.449Z,100337.94
2022-08-18T01:59:14.891Z,100329.81
2022-08-18T02:01:48.118Z,100333.06
2022-08-18T02:04:34.572Z,100330.06
2022-08-18T02:07:11.867Z,100322.44
2022-08-18T02:09:42.034Z,100329.75
2022-08-18T02:12:10.258Z,100324.59
2022-08-18T02:14:39.387Z,100322.16
2022-08-18T02:17:10.285Z,100324.28
2022-08-18T02:20:04.804Z,100330.22
2022-08-18T02:22:32.738Z,100327.47
2022-08-18T02:25:00.500Z,100328.53
2022-08-18T02:27:29.282Z,100331.00
2022-08-18T02:30:01.209Z,100330.16
2022-08-18T02:32:29.791Z,100329.34
2022-08-18T02:35:22.733Z,100329.34
2022-08-18T02:37:50.572Z,100324.91
2022-08-18T02:40:23.582Z,100327.63
2022-08-18T02:42:53.064Z,100330.91
2022-08-18T02:45:46.460Z,100338.78
2022-08-18T02:48:14.360Z,100328.69
2022-08-18T02:50:47.006Z,100332.19
2022-08-18T02:53:22.738Z,100343.50
2022-08-18T02:56:41.347Z,100333.47
2022-08-18T02:59:14.864Z,100340.97
2022-08-18T03:01:46.183Z,100334.19
2022-08-18T03:04:18.026Z,100334.13
2022-08-18T03:06:46.097Z,100339.22
2022-08-18T03:09:17.332Z,100332.09
2022-08-18T03:11:46.279Z,100330.72
2022-08-18T03:14:15.378Z,100332.91
2022-08-18T03:16:54.332Z,100335.59
2022-08-18T03:19:25.554Z,100328.25
2022-08-18T03:21:53.484Z,100319.59
2022-08-18T03:24:23.706Z,100327.34
2022-08-18T03:26:53.212Z,100336.06
2022-08-18T03:29:21.449Z,100329.91
2022-08-18T03:31:50.531Z,100336.63
2022-08-18T03:34:20.483Z,100338.75
2022-08-18T03:36:50.491Z,100340.34
2022-08-18T03:39:20.235Z,100332.72
2022-08-18T03:41:58.158Z,100340.84
2022-08-18T03:44:32.004Z,100341.91
2022-08-18T03:47:03.270Z,100344.59
2022-08-18T03:49:34.082Z,100345.19
2022-08-18T03:52:02.682Z,100355.25
2022-08-18T03:54:39.181Z,100342.53
2022-08-18T03:57:12.518Z,100346.06
2022-08-18T03:59:46.826Z,100346.06
2022-08-18T04:02:15.631Z,100359.09
2022-08-18T04:04:43.510Z,100356.22
2022-08-18T04:07:14.564Z,100356.84
2022-08-18T04:09:43.329Z,100356.56
2022-08-18T04:12:16.741Z,100350.41
2022-08-18T04:15:10.942Z,100350.22
2022-08-18T04:18:03.271Z,100351.53
2022-08-18T04:20:26.684Z,100353.66
2022-08-18T04:22:56.208Z,100347.75
2022-08-18T04:25:24.230Z,100343.97
2022-08-18T04:28:00.539Z,100350.78
2022-08-18T04:30:29.309Z,100353.78
2022-08-18T04:33:22.228Z,100348.47
2022-08-18T04:35:53.196Z,100352.31
2022-08-18T04:38:46.887Z,100346.56
2022-08-18T04:41:14.825Z,100347.13
2022-08-18T04:43:42.716Z,100350.47
2022-08-18T04:46:15.357Z,100355.16
2022-08-18T04:48:45.010Z,100359.03
2022-08-18T04:52:34.332Z,100355.34
2022-08-18T04:54:54.780Z,100362.72
2022-08-18T04:57:23.296Z,100366.03
2022-08-18T04:59:55.391Z,100365.81
2022-08-18T05:02:24.297Z,100371.28
2022-08-18T05:04:55.096Z,100361.53
2022-08-18T05:07:23.466Z,100365.34
2022-08-18T05:09:55.224Z,100369.75
2022-08-18T05:12:26.412Z,100362.22
2022-08-18T05:14:57.505Z,100363.63
2022-08-18T05:17:30.658Z,100365.28
2022-08-18T05:20:01.564Z,100365.91
2022-08-18T05:22:39.390Z,100363.53
2022-08-18T05:25:16.040Z,100362.47
2022-08-18T05:27:44.538Z,100364.41
2022-08-18T05:30:15.791Z,100371.50
2022-08-18T05:32:50.168Z,100374.25
2022-08-18T05:35:27.204Z,100369.16
2022-08-18T05:38:17.345Z,100372.41
2022-08-18T05:41:14.308Z,100380.03
2022-08-18T05:43:51.489Z,100372.72
2022-08-18T05:46:30.644Z,100377.13
2022-08-18T05:48:58.768Z,100377.72
2022-08-18T05:51:45.389Z,100376.38
2022-08-18T05:54:34.688Z,100370.13
2022-08-18T05:57:13.521Z,100376.94
2022-08-18T05:59:48.162Z,100376.09
2022-08-18T06:02:46.046Z,100382.09
2022-08-18T11:43:42.191Z,100364.88
2022-08-18T11:52:57.285Z,100351.56
2022-08-18T12:05:56.247Z,100326.06
2022-08-18T12:08:58.012Z,100331.38
2022-08-18T12:11:34.083Z,100323.28
2022-08-18T12:17:14.737Z,100324.25
2022-08-18T12:19:42.781Z,100320.13
2022-08-18T12:22:20.872Z,100314.38
2022-08-18T12:24:50.214Z,100320.19
2022-08-18T12:27:22.853Z,100319.44
2022-08-18T12:29:54.975Z,100310.56
2022-08-18T12:39:23.671Z,100308.78
2022-08-18T12:42:05.216Z,100302.16
2022-08-18T12:44:43.014Z,100304.47
2022-08-18T12:47:31.819Z,100299.88
2022-08-18T12:50:05.645Z,100301.34
2022-08-18T12:52:38.404Z,100301.47
2022-08-18T12:55:21.381Z,100304.88
2022-08-18T12:57:54.488Z,100299.41
2022-08-18T13:00:28.142Z,100295.41
2022-08-18T13:02:57.954Z,100289.44
2022-08-18T13:05:26.672Z,100285.56
2022-08-18T13:08:03.950Z,100285.56
2022-08-18T13:10:43.012Z,100294.91
2022-08-18T13:13:17.068Z,100289.91
2022-08-18T13:15:57.683Z,100286.03
2022-08-18T13:18:38.452Z,100283.31
2022-08-18T13:21:13.125Z,100275.75
2022-08-18T13:23:45.020Z,100278.97
2022-08-18T13:26:25.388Z,100272.19
2022-08-18T13:31:55.560Z,100276.53
2022-08-18T13:37:11.167Z,100269.09
2022-08-18T13:39:43.931Z,100263.59
2022-08-18T13:58:21.410Z,100257.19
2022-08-18T14:04:22.845Z,100259.16
2022-08-18T14:06:56.988Z,100252.84
2022-08-18T14:10:04.580Z,100251.84
2022-08-18T14:12:41.114Z,100255.38
2022-08-18T14:15:14.027Z,100252.81
2022-08-18T14:17:44.211Z,100262.38
2022-08-18T14:20:37.566Z,100252.00
2022-08-18T14:23:31.897Z,100250.56
2022-08-18T14:26:23.835Z,100246.69
2022-08-18T14:28:55.030Z,100244.25
2022-08-18T14:31:23.509Z,100249.59
2022-08-18T14:33:54.100Z,100249.28
2022-08-18T14:36:29.908Z,100252.31
2022-08-18T14:39:00.008Z,100249.69
2022-08-18T14:41:29.309Z,100245.94
2022-08-18T14:44:12.209Z,100246.50
2022-08-18T14:46:52.282Z,100255.72
2022-08-18T14:49:28.062Z,100260.84
2022-08-18T14:52:01.440Z,100261.31
2022-08-18T14:54:55.733Z,100255.31
2022-08-18T14:57:23.811Z,100245.34
2022-08-18T14:59:55.553Z,100242.28
2022-08-18T15:02:25.377Z,100251.56
2022-08-18T15:04:57.704Z,100259.34
2022-08-18T15:07:26.632Z,100254.63
2022-08-18T15:10:14.924Z,100260.63
2022-08-18T15:12:44.726Z,100258.19
2022-08-18T15:15:17.717Z,100255.81
2022-08-18T15:17:50.360Z,100262.25
2022-08-18T15:20:29.495Z,100262.44
2022-08-18T15:23:24.677Z,100262.25
2022-08-18T15:25:59.945Z,100270.63
2022-08-18T15:28:28.253Z,100263.53
2022-08-18T15:33:51.268Z,100253.06
2022-08-18T15:39:10.784Z,100256.94
2022-08-18T15:41:48.868Z,100253.88
2022-08-18T15:44:21.822Z,100252.25
2022-08-18T15:59:09.468Z,100239.44
2022-08-18T16:07:41.280Z,100231.84
2022-08-18T16:13:42.900Z,100212.41
2022-08-18T16:16:43.757Z,100213.63
2022-08-18T16:19:18.958Z,100219.72
2022-08-18T16:24:55.095Z,100213.56
2022-08-18T16:27:23.913Z,100220.81
2022-08-18T16:29:52.712Z,100227.13
2022-08-18T16:32:20.720Z,100227.44
2022-08-18T16:34:49.193Z,100222.88
2022-08-18T16:37:17.543Z,100233.03
2022-08-18T16:39:49.329Z,100234.66
2022-08-18T16:42:21.504Z,100225.44
2022-08-18T16:45:11.385Z,100241.69
2022-08-18T16:47:42.033Z,100239.03
2022-08-18T16:50:21.064Z,100247.59
2022-08-18T16:52:58.859Z,100246.56
2022-08-18T16:55:39.620Z,100249.94
2022-08-18T16:58:32.418Z,100257.16
2022-08-18T17:01:48.495Z,100260.50
2022-08-18T17:07:27.380Z,100263.88
2022-08-18T17:09:57.500Z,100262.38
2022-08-18T17:12:33.463Z,100262.91
2022-08-18T17:24:35.933Z,100264.63
2022-08-18T17:27:19.217Z,100264.09
2022-08-18T17:30:21.573Z,100264.44
2022-08-18T17:36:06.642Z,100249.31
2022-08-18T17:58:27.423Z,100258.34
2022-08-18T18:00:57.861Z,100253.81
2022-08-18T18:03:28.669Z,100258.97
2022-08-18T18:06:09.768Z,100259.56
2022-08-18T18:08:56.759Z,100261.56
2022-08-18T18:11:28.880Z,100254.88
2022-08-18T18:14:00.643Z,100253.16
2022-08-18T18:16:35.460Z,100240.97
2022-08-18T18:19:12.990Z,100241.25
2022-08-18T18:22:00.458Z,100235.72
2022-08-18T18:24:32.639Z,100238.31
2022-08-18T18:27:02.310Z,100236.47
2022-08-18T18:29:38.044Z,100239.78
2022-08-18T18:32:26.685Z,100247.78
2022-08-18T18:35:18.820Z,100247.25
2022-08-18T18:37:52.019Z,100238.03
2022-08-18T18:47:49.369Z,100232.59
2022-08-18T18:51:13.636Z,100232.94
2022-08-18T18:54:04.154Z,100242.06
2022-08-18T18:56:51.314Z,100244.56
2022-08-18T18:59:53.108Z,100239.38
2022-08-18T19:02:40.183Z,100242.78
2022-08-18T19:09:05.907Z,100259.09
2022-08-18T19:24:27.731Z,100284.97
2022-08-18T19:27:04.211Z,100303.03
2022-08-18T19:29:43.889Z,100301.47
2022-08-18T19:32:17.148Z,100312.97
2022-08-18T19:34:51.562Z,100313.22
2022-08-18T19:37:40.455Z,100309.41
2022-08-18T19:40:21.738Z,100315.94
2022-08-18T19:43:30.015Z,100316.00
2022-08-18T19:46:11.098Z,100323.66
2022-08-18T19:48:54.818Z,100319.03
2022-08-18T19:51:40.170Z,100323.13
2022-08-18T19:54:40.734Z,100313.38
2022-08-18T19:57:27.309Z,100305.75
2022-08-18T20:00:24.097Z,100293.53
2022-08-18T20:03:28.412Z,100292.75
2022-08-18T20:06:27.627Z,100291.69
2022-08-18T20:15:57.432Z,100288.44
2022-08-18T20:18:35.510Z,100287.41
2022-08-18T20:21:16.507Z,100293.16
2022-08-18T20:23:57.808Z,100293.72
2022-08-18T20:26:41.829Z,100294.81
2022-08-18T20:29:18.742Z,100294.28
2022-08-18T20:32:00.752Z,100298.09
2022-08-18T20:34:37.273Z,100302.19
2022-08-18T20:37:09.542Z,100298.38
2022-08-18T20:39:47.199Z,100302.19
2022-08-18T20:42:21.980Z,100303.84
2022-08-18T20:44:52.582Z,100293.75
2022-08-18T20:47:37.130Z,100300.56
2022-08-18T20:50:43.492Z,100290.75
2022-08-18T20:53:55.288Z,100292.66
2022-08-18T20:56:43.605Z,100293.78
2022-08-18T20:59:20.986Z,100299.50
2022-08-18T21:02:07.902Z,100288.34
2022-08-18T21:04:43.939Z,100276.69
2022-08-18T21:07:37.169Z,100279.16
2022-08-18T21:10:13.971Z,100279.19
2022-08-18T21:12:52.968Z,100280.03
2022-08-18T21:15:28.778Z,100280.28
2022-08-18T21:18:18.268Z,100276.75
2022-08-18T21:20:59.489Z,100282.47
2022-08-18T21:23:36.490Z,100281.66
2022-08-18T21:26:11.493Z,100278.94
2022-08-18T21:28:44.593Z,100272.69
2022-08-18T21:31:44.086Z,100277.88
2022-08-18T21:34:18.761Z,100265.34
2022-08-18T21:36:56.784Z,100259.06
2022-08-18T21:39:25.987Z,100248.16
2022-08-18T21:42:00.670Z,100239.41
2022-08-18T21:44:45.446Z,100232.91
2022-08-18T21:47:24.870Z,100231.00
2022-08-18T21:50:18.760Z,100223.44
2022-08-18T21:53:05.541Z,100226.75
2022-08-18T21:55:40.490Z,100225.97
2022-08-18T21:58:16.954Z,100227.09
2022-08-18T22:00:47.067Z,100233.09
2022-08-18T22:03:27.318Z,100233.91
2022-08-18T22:06:14.725Z,100233.66
2022-08-18T22:09:07.256Z,100239.91
2022-08-18T22:12:01.972Z,100244.81
2022-08-18T22:14:36.139Z,100234.78
2022-08-18T22:17:53.141Z,100235.28
2022-08-18T22:20:47.804Z,100229.59
2022-08-18T22:23:34.313Z,100229.03
2022-08-18T22:26:11.346Z,100232.06
2022-08-18T22:29:02.401Z,100241.03
2022-08-18T22:31:31.739Z,100222.81
2022-08-18T22:34:27.943Z,100221.72
2022-08-18T22:37:50.906Z,100223.09
2022-08-18T22:40:21.913Z,100233.19
2022-08-18T22:43:16.863Z,100224.22
2022-08-18T22:45:45.169Z,100213.88
2022-08-18T22:48:14.778Z,100214.44
2022-08-18T22:50:45.417Z,100210.06
2022-08-18T22:53:19.226Z,100210.38
2022-08-18T22:55:47.879Z,100201.66
2022-08-18T22:58:16.040Z,100212.31
2022-08-18T23:01:05.169Z,100213.94
2022-08-18T23:03:44.427Z,100212.34
2022-08-18T23:06:14.140Z,100223.50
2022-08-18T23:08:54.895Z,100225.44
2022-08-18T23:11:25.225Z,100217.53
2022-08-18T23:14:20.067Z,100217.03
2022-08-18T23:16:50.028Z,100234.97
2022-08-18T23:19:20.415Z,100233.63
2022-08-18T23:21:49.221Z,100232.28
2022-08-18T23:24:43.660Z,100227.13
2022-08-18T23:27:16.131Z,100230.69
2022-08-18T23:29:44.695Z,100226.06
2022-08-18T23:32:14.303Z,100233.13
2022-08-18T23:35:07.512Z,100237.50
2022-08-18T23:38:01.952Z,100247.00
2022-08-18T23:40:30.641Z,100245.66
2022-08-18T23:42:59.571Z,100240.22
2022-08-18T23:45:30.692Z,100241.31
2022-08-18T23:47:58.745Z,100239.16
2022-08-18T23:50:29.665Z,100236.66
2022-08-18T23:52:58.134Z,100236.66
2022-08-18T23:55:26.290Z,100228.00
2022-08-18T23:57:54.335Z,100233.44
